createdAt,value
2018-09-04T00:04:02.159Z,29
2018-09-04T00:09:04.683Z,27
2018-09-04T00:14:07.074Z,31
2018-09-04T00:19:09.506Z,28
2018-09-04T00:24:12.012Z,34
2018-09-04T00:29:14.630Z,33
2018-09-04T00:34:16.935Z,33
2018-09-04T00:39:19.395Z,30
2018-09-04T00:44:21.805Z,39
2018-09-04T00:49:24.252Z,35
2018-09-04T00:54:26.786Z,31
2018-09-04T00:59:29.187Z,28
2018-09-04T01:04:31.647Z,33
2018-09-04T01:14:36.674Z,32
2018-09-04T01:19:39.179Z,41
2018-09-04T01:24:41.476Z,38
2018-09-04T01:29:43.968Z,40
2018-09-04T01:34:46.389Z,32
2018-09-04T01:39:48.832Z,32
2018-09-04T01:44:51.492Z,32
2018-09-04T01:49:53.762Z,35
2018-09-04T01:54:56.224Z,35
2018-09-04T01:59:58.712Z,38
2018-09-04T02:05:01.138Z,40
2018-09-04T02:10:03.597Z,39
2018-09-04T02:15:06.964Z,36
2018-09-04T02:20:08.543Z,42
2018-09-04T02:25:10.949Z,52
2018-09-04T02:30:13.615Z,50
2018-09-04T02:35:15.883Z,47
2018-09-04T02:40:18.345Z,32
2018-09-04T02:45:20.791Z,39
2018-09-04T02:50:24.362Z,41
2018-09-04T02:55:25.704Z,38
2018-09-04T03:00:28.176Z,37
2018-09-04T03:05:30.616Z,37
2018-09-04T03:10:33.346Z,32
2018-09-04T03:15:35.531Z,32
2018-09-04T03:20:38.363Z,36
2018-09-04T03:25:40.478Z,36
2018-09-04T03:30:42.927Z,31
2018-09-04T03:35:45.364Z,31
2018-09-04T03:40:47.824Z,28
2018-09-04T03:45:50.313Z,29
2018-09-04T03:50:52.803Z,28
2018-09-04T03:55:55.201Z,28
2018-09-04T04:00:57.725Z,27
2018-09-04T04:06:00.174Z,29
2018-09-04T04:11:02.645Z,28
2018-09-04T04:16:10.116Z,26
2018-09-04T04:21:07.529Z,29
2018-09-04T04:26:09.970Z,27
2018-09-04T04:31:12.482Z,30
2018-09-04T04:36:14.861Z,34
2018-09-04T04:41:17.316Z,30
2018-09-04T04:46:20.111Z,32
2018-09-04T04:51:22.278Z,46
2018-09-04T04:56:24.706Z,63
2018-09-04T05:01:27.163Z,69
2018-09-04T05:06:29.614Z,76
2018-09-04T05:11:32.170Z,84
2018-09-04T05:16:34.637Z,88
2018-09-04T05:21:37.030Z,97
2018-09-04T05:26:39.621Z,86
2018-09-04T05:31:41.910Z,95
2018-09-04T05:36:44.756Z,84
2018-09-04T05:41:46.845Z,84
2018-09-04T05:46:49.301Z,90
2018-09-04T05:51:51.726Z,81
2018-09-04T05:56:54.276Z,73
2018-09-04T06:01:56.683Z,74
2018-09-04T06:06:59.120Z,67
2018-09-04T06:12:01.574Z,66
2018-09-04T06:17:04.032Z,56
2018-09-04T06:22:06.519Z,47
2018-09-04T06:27:08.956Z,49
2018-09-04T06:32:11.419Z,50
2018-09-04T06:37:13.865Z,48
2018-09-04T06:42:16.314Z,43
2018-09-04T06:47:18.803Z,39
2018-09-04T06:52:21.497Z,39
2018-09-04T06:57:23.699Z,43
2018-09-04T07:02:26.156Z,41
2018-09-04T07:07:28.641Z,34
2018-09-04T07:12:31.065Z,33
2018-09-04T07:17:33.546Z,33
2018-09-04T07:22:36.054Z,34
2018-09-04T07:27:38.531Z,31
2018-09-04T07:32:40.911Z,30
2018-09-04T07:37:43.416Z,31
2018-09-04T07:42:45.908Z,32
2018-09-04T07:47:48.288Z,33
2018-09-04T07:52:50.781Z,36
2018-09-04T07:57:53.188Z,35
2018-09-04T08:02:55.663Z,30
2018-09-04T08:07:58.122Z,31
2018-09-04T08:13:00.573Z,32
2018-09-04T08:18:03.058Z,29
2018-09-04T08:23:05.731Z,32
2018-09-04T08:28:08.002Z,33
2018-09-04T08:33:10.555Z,28
2018-09-04T08:38:12.870Z,33
2018-09-04T08:43:15.367Z,34
2018-09-04T08:48:18.004Z,33
2018-09-04T08:53:20.295Z,32
2018-09-04T08:58:22.722Z,32
2018-09-04T09:03:25.179Z,32
2018-09-04T09:08:27.640Z,32
2018-09-04T09:13:30.300Z,32
2018-09-04T09:18:32.550Z,31
2018-09-04T09:23:35.026Z,32
2018-09-04T09:28:37.506Z,32
2018-09-04T09:33:40.028Z,29
2018-09-04T09:38:42.376Z,34
2018-09-04T09:43:45.394Z,30
2018-09-04T09:48:47.293Z,29
2018-09-04T09:53:49.831Z,29
2018-09-04T09:58:52.304Z,26
2018-09-04T10:03:54.724Z,27
2018-09-04T10:08:57.122Z,28
2018-09-04T10:13:59.847Z,22
2018-09-04T10:19:02.053Z,21
2018-09-04T10:24:04.532Z,20
2018-09-04T10:29:07.310Z,20
2018-09-04T10:34:09.520Z,21
2018-09-04T10:39:11.936Z,24
2018-09-04T10:44:14.365Z,23
2018-09-04T10:49:16.803Z,25
2018-09-04T10:54:19.250Z,21
2018-09-04T10:59:21.724Z,20
2018-09-04T11:04:24.222Z,22
2018-09-04T11:09:26.709Z,28
2018-09-04T11:14:29.100Z,24
2018-09-04T11:19:31.587Z,24
2018-09-04T11:24:34.012Z,27
2018-09-04T11:29:36.605Z,25
2018-09-04T11:34:39.485Z,27
2018-09-04T11:39:41.416Z,26
2018-09-04T11:44:43.960Z,26
2018-09-04T11:49:46.367Z,26
2018-09-04T11:54:48.922Z,21
2018-09-04T11:59:51.343Z,25
2018-09-04T12:04:54.105Z,24
2018-09-04T12:09:56.184Z,33
2018-09-04T12:14:58.612Z,29
2018-09-04T12:20:01.170Z,27
2018-09-04T12:25:03.562Z,23
2018-09-04T12:30:06.316Z,25
2018-09-04T12:35:08.632Z,21
2018-09-04T12:40:10.908Z,22
2018-09-04T12:45:13.373Z,25
2018-09-04T12:50:15.818Z,22
2018-09-04T12:55:18.280Z,28
2018-09-04T13:00:20.748Z,27
2018-09-04T13:05:23.522Z,22
2018-09-04T13:10:25.827Z,20
2018-09-04T13:15:30.287Z,21
2018-09-04T13:20:30.575Z,18
2018-09-04T13:30:35.481Z,20
2018-09-04T13:35:38.043Z,22
2018-09-04T13:40:40.430Z,23
2018-09-04T13:45:42.852Z,19
2018-09-04T13:50:45.502Z,19
2018-09-04T13:55:47.779Z,19
2018-09-04T14:00:50.257Z,18
2018-09-04T14:05:52.700Z,18
2018-09-04T14:15:57.757Z,17
2018-09-04T14:21:00.142Z,18
2018-09-04T14:26:02.541Z,19
2018-09-04T14:31:05.348Z,17
2018-09-04T14:36:07.733Z,17
2018-09-04T14:41:09.919Z,14
2018-09-04T14:46:12.371Z,14
2018-09-04T14:51:14.831Z,16
2018-09-04T14:56:17.307Z,15
2018-09-04T15:01:19.762Z,15
2018-09-04T15:06:22.309Z,14
2018-09-04T15:11:24.664Z,14
2018-09-04T15:16:27.121Z,14
2018-09-04T15:21:29.609Z,13
2018-09-04T15:26:32.048Z,13
2018-09-04T15:31:34.591Z,11
2018-09-04T15:36:36.962Z,12
2018-09-04T15:41:39.442Z,11
2018-09-04T15:46:41.886Z,12
2018-09-04T15:51:44.436Z,15
2018-09-04T15:56:46.826Z,15
2018-09-04T16:01:49.258Z,13
2018-09-04T16:06:51.712Z,12
2018-09-04T16:11:54.212Z,14
2018-09-04T16:16:56.713Z,14
2018-09-04T16:21:59.081Z,14
2018-09-04T16:27:01.562Z,14
2018-09-04T16:32:04.038Z,16
2018-09-04T16:37:06.767Z,16
2018-09-04T16:42:09.001Z,13
2018-09-04T16:47:11.388Z,12
2018-09-04T16:52:13.866Z,13
2018-09-04T16:57:16.303Z,12
2018-09-04T17:02:18.777Z,12
2018-09-04T17:12:23.799Z,12
2018-09-04T17:17:26.209Z,12
2018-09-04T17:22:28.582Z,14
2018-09-04T17:27:31.083Z,15
2018-09-04T17:32:33.525Z,14
2018-09-04T17:37:36.052Z,13
2018-09-04T17:42:38.423Z,13
2018-09-04T17:47:40.960Z,13
2018-09-04T17:52:43.343Z,17
2018-09-04T17:57:45.798Z,14
2018-09-04T18:02:48.263Z,15
2018-09-04T18:07:50.732Z,16
2018-09-04T18:12:53.191Z,17
2018-09-04T18:17:55.652Z,17
2018-09-04T18:22:58.104Z,18
2018-09-04T18:28:00.547Z,16
2018-09-04T18:33:03.070Z,16
2018-09-04T18:43:07.931Z,21
2018-09-04T18:48:10.381Z,19
2018-09-04T18:53:13.036Z,23
2018-09-04T18:58:15.308Z,20
2018-09-04T19:03:17.763Z,19
2018-09-04T19:08:20.353Z,19
2018-09-04T19:18:25.131Z,20
2018-09-04T19:23:27.729Z,19
2018-09-04T19:28:30.064Z,20
2018-09-04T19:33:32.517Z,18
2018-09-04T19:38:35.115Z,20
2018-09-04T19:43:37.447Z,20
2018-09-04T19:48:39.887Z,18
2018-09-04T19:53:42.387Z,18
2018-09-04T19:58:44.821Z,18
2018-09-04T20:03:47.264Z,20
2018-09-04T20:08:49.765Z,19
2018-09-04T20:13:52.608Z,21
2018-09-04T20:18:54.864Z,19
2018-09-04T20:23:57.420Z,18
2018-09-04T20:28:59.672Z,22
2018-09-04T20:34:02.014Z,25
2018-09-04T20:39:04.525Z,25
2018-09-04T20:44:07.148Z,23
2018-09-04T20:49:09.727Z,23
2018-09-04T20:54:11.857Z,21
2018-09-04T20:59:14.303Z,23
2018-09-04T21:04:16.767Z,20
2018-09-04T21:09:19.245Z,22
2018-09-04T21:14:21.678Z,22
2018-09-04T21:19:24.154Z,24
2018-09-04T21:24:26.615Z,22
2018-09-04T21:29:29.216Z,23
2018-09-04T21:34:31.563Z,22
2018-09-04T21:39:33.976Z,24
2018-09-04T21:44:36.414Z,22
2018-09-04T21:49:38.875Z,22
2018-09-04T21:54:41.460Z,23
2018-09-04T21:59:43.788Z,26
2018-09-04T22:04:46.295Z,24
2018-09-04T22:09:48.717Z,25
2018-09-04T22:14:51.214Z,23
2018-09-04T22:19:53.640Z,24
2018-09-04T22:24:56.088Z,27
2018-09-04T22:29:58.555Z,26
2018-09-04T22:35:01.006Z,28
2018-09-04T22:40:03.476Z,27
2018-09-04T22:45:05.974Z,27
2018-09-04T22:50:09.181Z,27
2018-09-04T22:55:10.827Z,26
2018-09-04T23:00:13.305Z,27
2018-09-04T23:05:15.748Z,36
2018-09-04T23:10:18.206Z,27
2018-09-04T23:15:20.734Z,26
2018-09-04T23:20:23.200Z,28
2018-09-04T23:25:25.681Z,26
2018-09-04T23:30:28.126Z,27
2018-09-04T23:35:30.521Z,31
2018-09-04T23:40:32.950Z,26
2018-09-04T23:45:35.517Z,26
2018-09-04T23:50:37.904Z,27
2018-09-04T23:55:40.543Z,29
